Home > Products > Valid Products > TAF

000
FTUS46 KOTX 292024 AAA
TAFLWS
TAF AMD
KLWS 292024Z 2920/3018 00000KT P6SM SCT005 BKN010
      TEMPO 2920/2924 SCT010
     FM300300 VRB03KT 4SM BR OVC006
     FM300700 VRB03KT 1SM BR OVC003=



000
FTUS46 KOTX 292024 AAA
TAFLWS
TAF AMD
KLWS 292024Z 2920/3018 00000KT P6SM SCT005 BKN010
      TEMPO 2920/2924 SCT010
     FM300300 VRB03KT 4SM BR OVC006
     FM300700 VRB03KT 1SM BR OVC003=



000
FTUS46 KOTX 292018 AAA
TAFSFF
TAF AMD
KSFF 292018Z 2920/3018 VRB03KT P6SM SCT008
      TEMPO 2920/2923 BKN010
     FM292300 35003KT P6SM BKN012
     FM300400 VRB02KT P6SM OVC005=



000
FTUS46 KOTX 291723
TAFMWH
TAF
KMWH 291723Z 2918/3018 05004KT P6SM OVC014=



000
FTUS46 KOTX 291723
TAFPUW
TAF
KPUW 291723Z 2918/3018 09006KT P6SM FEW020
     FM291900 10003KT P6SM SCT020 BKN070
     FM300200 28004KT P6SM BKN005
     FM300500 02002KT 3SM BR BKN004
     FM300800 VRB02KT 1/2SM FZFG VV002=



000
FTUS46 KOTX 291723
TAFGEG
TAF
KGEG 291723Z 2918/3018 02006KT 1/4SM FZFG VV002
     FM292000 02004KT 1/2SM FG VV002
     FM292100 05004KT 1SM BR OVC004
     FM292300 04004KT 3SM BR OVC005
     FM300300 02004KT 1SM BR OVC003
     FM300600 04005KT 1/4SM FZFG VV002=



000
FTUS46 KOTX 291723
TAFSFF
TAF
KSFF 291723Z 2918/3018 00000KT P6SM OVC007
     FM292300 35003KT P6SM BKN012
     FM300400 VRB02KT P6SM OVC005=



000
FTUS46 KOTX 291723
TAFCOE
TAF
KCOE 291723Z 2918/3018 03009KT P6SM OVC004
     FM292200 01004KT P6SM BKN008
     FM300400 04004KT P6SM OVC005
      AMD LTD TO CLD AND VIS=



000
FTUS46 KOTX 291723
TAFEAT
TAF
KEAT 291723Z 2918/3018 27004KT P6SM OVC009
     FM292200 27004KT P6SM OVC012
     FM300500 29002KT P6SM OVC008=



000
FTUS46 KOTX 291723
TAFSFF
TAF
KSFF 291723Z 2918/3018 00000KT P6SM OVC007
     FM292300 35003KT P6SM BKN012
     FM300400 VRB02KT P6SM OVC005=



000
FTUS46 KOTX 291723
TAFLWS
TAF
KLWS 291723Z 2918/3018 00000KT 1/2SM FG VV003
     FM292000 00000KT 2SM BR OVC004
     FM292200 VRB03KT 4SM BR OVC006
     FM300700 VRB03KT 1SM BR OVC003=



000
FTUS46 KOTX 291723
TAFCOE
TAF
KCOE 291723Z 2918/3018 03009KT P6SM OVC004
     FM292200 01004KT P6SM BKN008
     FM300400 04004KT P6SM OVC005
      AMD LTD TO CLD AND VIS=



000
FTUS46 KOTX 291723
TAFPUW
TAF
KPUW 291723Z 2918/3018 09006KT P6SM FEW020
     FM291900 10003KT P6SM SCT020 BKN070
     FM300200 28004KT P6SM BKN005
     FM300500 02002KT 3SM BR BKN004
     FM300800 VRB02KT 1/2SM FZFG VV002=



000
FTUS46 KOTX 291723
TAFMWH
TAF
KMWH 291723Z 2918/3018 05004KT P6SM OVC014=



000
FTUS46 KOTX 291723
TAFLWS
TAF
KLWS 291723Z 2918/3018 00000KT 1/2SM FG VV003
     FM292000 00000KT 2SM BR OVC004
     FM292200 VRB03KT 4SM BR OVC006
     FM300700 VRB03KT 1SM BR OVC003=



000
FTUS46 KOTX 291723
TAFEAT
TAF
KEAT 291723Z 2918/3018 27004KT P6SM OVC009
     FM292200 27004KT P6SM OVC012
     FM300500 29002KT P6SM OVC008=



000
FTUS46 KOTX 291723
TAFGEG
TAF
KGEG 291723Z 2918/3018 02006KT 1/4SM FZFG VV002
     FM292000 02004KT 1/2SM FG VV002
     FM292100 05004KT 1SM BR OVC004
     FM292300 04004KT 3SM BR OVC005
     FM300300 02004KT 1SM BR OVC003
     FM300600 04005KT 1/4SM FZFG VV002=



000
FTUS46 KOTX 291708 AAA
TAFGEG
TAF AMD
KGEG 291708Z 2917/3012 02006KT 1/4SM FZFG VV002
     FM292000 02004KT 1/2SM FG VV002
     FM292100 05004KT 1SM BR OVC005
     FM292300 04004KT 5SM BR SCT003 BKN012
     FM300100 02004KT 5SM BR SCT008
     FM300600 04005KT 1/2SM FG VV002=



000
FTUS46 KOTX 291356 AAA
TAFLWS
TAF AMD
KLWS 291356Z 2914/3012 00000KT 1/4SM FG VV001
      TEMPO 2914/2918 2SM BR OVC002
     FM291900 00000KT P6SM SCT012 BKN100
     FM292200 VRB03KT P6SM SCT010 BKN060
     FM300700 VRB03KT 1SM BR BKN003=



000
FTUS46 KOTX 291356 AAA
TAFLWS
TAF AMD
KLWS 291356Z 2914/3012 00000KT 1/4SM FG VV001
      TEMPO 2914/2918 2SM BR OVC002
     FM291900 00000KT P6SM SCT012 BKN100
     FM292200 VRB03KT P6SM SCT010 BKN060
     FM300700 VRB03KT 1SM BR BKN003=



000
FTUS46 KOTX 291355 AAA
TAFCOE
TAF AMD
KCOE 291355Z 2914/3012 04008KT P6SM OVC003
     FM291800 04006KT P6SM OVC008
     FM292000 01004KT P6SM SCT010 BKN020
     FM292300 02005KT P6SM SCT030
     FM300500 04004KT 1SM BR OVC002
      AMD LTD TO CLD AND VIS=



000
FTUS46 KOTX 291355 AAA
TAFCOE
TAF AMD
KCOE 291355Z 2914/3012 04008KT P6SM OVC003
     FM291800 04006KT P6SM OVC008
     FM292000 01004KT P6SM SCT010 BKN020
     FM292300 02005KT P6SM SCT030
     FM300500 04004KT 1SM BR OVC002
      AMD LTD TO CLD AND VIS=



000
FTUS46 KOTX 291317 AAA
TAFSFF
TAF AMD
KSFF 291317Z 2913/3012 00000KT P6SM OVC005
     FM292000 35003KT P6SM OVC010
     FM292300 35003KT P6SM SCT010 BKN020
     FM300100 VRB02KT P6SM SCT020
     FM300600 VRB02KT 1/2SM FG VV003=



000
FTUS46 KOTX 291317 AAA
TAFSFF
TAF AMD
KSFF 291317Z 2913/3012 00000KT P6SM OVC005
     FM292000 35003KT P6SM OVC010
     FM292300 35003KT P6SM SCT010 BKN020
     FM300100 VRB02KT P6SM SCT020
     FM300600 VRB02KT 1/2SM FG VV003=



000
FTUS46 KOTX 291132
TAFEAT
TAF
KEAT 291132Z 2912/3012 00000KT P6SM OVC009
     FM292200 27004KT P6SM SCT010 BKN020
     FM300300 29002KT 2SM BR BKN003=



000
FTUS46 KOTX 291132
TAFCOE
TAF
KCOE 291132Z 2912/3012 05008KT 2SM BR OVC002
     FM291400 05007KT 6SM BR OVC005
     FM291500 04006KT P6SM OVC008
     FM292000 01004KT P6SM SCT010 BKN020
     FM292300 02005KT P6SM SCT030
     FM300500 04004KT 1SM BR OVC002
      AMD LTD TO CLD AND VIS=



000
FTUS46 KOTX 291132
TAFEAT
TAF
KEAT 291132Z 2912/3012 00000KT P6SM OVC009
     FM292200 27004KT P6SM SCT010 BKN020
     FM300300 29002KT 2SM BR BKN003=



000
FTUS46 KOTX 291132
TAFGEG
TAF
KGEG 291132Z 2912/3012 04007KT 1/4SM FG VV001
     FM291900 05004KT 1SM BR OVC005
     FM292100 04004KT 5SM BR SCT003 BKN012
     FM300100 02004KT 5SM BR SCT008
     FM300600 04005KT 1/2SM FG VV002=



000
FTUS46 KOTX 291132
TAFPUW
TAF
KPUW 291132Z 2912/3012 11006KT P6SM FEW020
     FM291900 10003KT P6SM SCT020 BKN070
     FM300200 28004KT P6SM BKN005
     FM300500 02002KT 3SM BR BKN004=



000
FTUS46 KOTX 291132
TAFMWH
TAF
KMWH 291132Z 2912/3012 01003KT P6SM OVC010
     FM291800 05004KT P6SM OVC014
     FM292200 35004KT P6SM OVC020=



000
FTUS46 KOTX 291132
TAFSFF
TAF
KSFF 291132Z 2912/3012 00000KT 5SM BR OVC003
      TEMPO 2912/2916 1/2SM FG VV002
     FM291700 00000KT 3SM BR OVC006
     FM292000 35003KT 6SM BR OVC010
     FM292300 35003KT P6SM SCT010 BKN020
     FM300100 VRB02KT P6SM SCT020
     FM300600 VRB02KT 1/2SM FG VV003=



000
FTUS46 KOTX 291132
TAFLWS
TAF
KLWS 291132Z 2912/3012 00000KT 1/4SM FZFG VV002
      TEMPO 2914/2918 3SM BR OVC003
     FM291900 00000KT P6SM SCT012 BKN100
     FM292200 VRB03KT P6SM SCT010 BKN060
     FM300700 VRB03KT 1SM BR BKN003=



000
FTUS46 KOTX 291132
TAFLWS
TAF
KLWS 291132Z 2912/3012 00000KT 1/4SM FZFG VV002
      TEMPO 2914/2918 3SM BR OVC003
     FM291900 00000KT P6SM SCT012 BKN100
     FM292200 VRB03KT P6SM SCT010 BKN060
     FM300700 VRB03KT 1SM BR BKN003=



000
FTUS46 KOTX 291132
TAFMWH
TAF
KMWH 291132Z 2912/3012 01003KT P6SM OVC010
     FM291800 05004KT P6SM OVC014
     FM292200 35004KT P6SM OVC020=



000
FTUS46 KOTX 291132
TAFPUW
TAF
KPUW 291132Z 2912/3012 11006KT P6SM FEW020
     FM291900 10003KT P6SM SCT020 BKN070
     FM300200 28004KT P6SM BKN005
     FM300500 02002KT 3SM BR BKN004=



000
FTUS46 KOTX 291132
TAFSFF
TAF
KSFF 291132Z 2912/3012 00000KT 5SM BR OVC003
      TEMPO 2912/2916 1/2SM FG VV002
     FM291700 00000KT 3SM BR OVC006
     FM292000 35003KT 6SM BR OVC010
     FM292300 35003KT P6SM SCT010 BKN020
     FM300100 VRB02KT P6SM SCT020
     FM300600 VRB02KT 1/2SM FG VV003=



000
FTUS46 KOTX 291132
TAFCOE
TAF
KCOE 291132Z 2912/3012 05008KT 2SM BR OVC002
     FM291400 05007KT 6SM BR OVC005
     FM291500 04006KT P6SM OVC008
     FM292000 01004KT P6SM SCT010 BKN020
     FM292300 02005KT P6SM SCT030
     FM300500 04004KT 1SM BR OVC002
      AMD LTD TO CLD AND VIS=



000
FTUS46 KOTX 291132
TAFGEG
TAF
KGEG 291132Z 2912/3012 04007KT 1/4SM FG VV001
     FM291900 05004KT 1SM BR OVC005
     FM292100 04004KT 5SM BR SCT003 BKN012
     FM300100 02004KT 5SM BR SCT008
     FM300600 04005KT 1/2SM FG VV002=



000
FTUS46 KOTX 290814 AAA
TAFGEG
TAF AMD
KGEG 290814Z 2908/3006 04005KT 1/4SM FG VV001
     FM291900 04004KT 1SM BR OVC005
     FM292200 VRB03KT 6SM BR BKN005
     FM300200 35003KT 6SM BR SCT005=



000
FTUS46 KOTX 290814 AAA
TAFGEG
TAF AMD
KGEG 290814Z 2908/3006 04005KT 1/4SM FG VV001
     FM291900 04004KT 1SM BR OVC005
     FM292200 VRB03KT 6SM BR BKN005
     FM300200 35003KT 6SM BR SCT005=



000
FTUS46 KOTX 290701 CCA
TAFLWS
TAF COR
KLWS 290701Z 2907/3006 VRB03KT 1SM BR BCFG VV002
      TEMPO 2907/2909 1/4SM FG VV002
     FM290900 00000KT 1/4SM FG VV002
     FM291900 00000KT P6SM SCT012 BKN100
     FM300400 VRB02KT P6SM SCT010 BKN020=



000
FTUS46 KOTX 290701 CCA
TAFLWS
TAF COR
KLWS 290701Z 2907/3006 VRB03KT 1SM BR BCFG VV002
      TEMPO 2907/2909 1/4SM FG VV002
     FM290900 00000KT 1/4SM FG VV002
     FM291900 00000KT P6SM SCT012 BKN100
     FM300400 VRB02KT P6SM SCT010 BKN020=



000
FTUS46 KOTX 290700 AAA
TAFLWS
TAF AMD
KLWS 290700Z 2907/3006 VRB03KT 1SM BR BCFG VV002
      TEMPO 2907/2909 1/2SM FG VV002
     FM290900 00000KT 1/4SM FG VV002
     FM291900 00000KT P6SM SCT012 BKN100
     FM300400 VRB02KT P6SM SCT010 BKN020=



000
FTUS46 KOTX 290700 AAA
TAFLWS
TAF AMD
KLWS 290700Z 2907/3006 VRB03KT 1SM BR BCFG VV002
      TEMPO 2907/2909 1/2SM FG VV002
     FM290900 00000KT 1/4SM FG VV002
     FM291900 00000KT P6SM SCT012 BKN100
     FM300400 VRB02KT P6SM SCT010 BKN020=



000
FTUS46 KOTX 290559 CCA
TAFGEG
TAF COR
KGEG 290559Z 2906/3006 04003KT 3SM BCFG BKN004
     FM290800 06003KT 1/2SM FZFG VV002
     FM291900 04004KT 1SM BR OVC005
     FM292200 VRB03KT 6SM BR BKN005
     FM300200 35003KT 6SM BR SCT005=



000
FTUS46 KOTX 290559 CCA
TAFGEG
TAF COR
KGEG 290559Z 2906/3006 04003KT 3SM BCFG BKN004
     FM290800 06003KT 1/2SM FZFG VV002
     FM291900 04004KT 1SM BR OVC005
     FM292200 VRB03KT 6SM BR BKN005
     FM300200 35003KT 6SM BR SCT005=



000
FTUS46 KOTX 290529 CCA
TAFSFF
TAF COR
KSFF 290529Z 2906/3006 00000KT 1/4SM FZFG VV002
     FM291900 00000KT 1SM BR OVC006
     FM292100 35003KT 6SM BR BKN010
     FM292300 35003KT P6SM SCT010=



000
FTUS46 KOTX 290529 CCA
TAFSFF
TAF COR
KSFF 290529Z 2906/3006 00000KT 1/4SM FZFG VV002
     FM291900 00000KT 1SM BR OVC006
     FM292100 35003KT 6SM BR BKN010
     FM292300 35003KT P6SM SCT010=



000
FTUS46 KOTX 290529 CCA
TAFCOE
TAF COR
KCOE 290529Z 2906/3006 07006KT 6SM BR FEW002 SCT025
      TEMPO 2906/2908 1SM BCFG BKN002
     FM290800 05007KT 1SM BR OVC002
     FM291500 04006KT P6SM OVC008
     FM291700 04005KT P6SM BKN015
     FM292200 01004KT P6SM SCT020
      AMD LTD TO CLD AND VIS=



000
FTUS46 KOTX 290529 CCA
TAFCOE
TAF COR
KCOE 290529Z 2906/3006 07006KT 6SM BR FEW002 SCT025
      TEMPO 2906/2908 1SM BCFG BKN002
     FM290800 05007KT 1SM BR OVC002
     FM291500 04006KT P6SM OVC008
     FM291700 04005KT P6SM BKN015
     FM292200 01004KT P6SM SCT020
      AMD LTD TO CLD AND VIS=



000
FTUS46 KOTX 290527
TAFCOE
TAF
KCOE 290527Z 2906/3006 07006KT 6SM BR FEW002 SCT025
     FM290800 05007KT P6SM OVC012
     FM291500 04006KT P6SM OVC008
     FM291700 04005KT P6SM BKN015
     FM292200 01004KT P6SM SCT020
      AMD LTD TO CLD AND VIS=



000
FTUS46 KOTX 290527
TAFLWS
TAF
KLWS 290527Z 2906/3006 VRB03KT P6SM SKC
     FM291000 00000KT 1SM BR VV002
     FM291900 00000KT P6SM SCT012 BKN100
     FM300400 VRB02KT P6SM SCT010 BKN020=



000
FTUS46 KOTX 290527
TAFGEG
TAF
KGEG 290527Z 2906/3006 04003KT 3SM BCFG FEW002 SCT008
     FM290800 06003KT 1/2SM FZFG VV002
     FM291900 04004KT 1SM BR OVC005
     FM292200 VRB03KT 6SM BR BKN005
     FM300200 35003KT 6SM BR SCT005=



000
FTUS46 KOTX 290527
TAFEAT
TAF
KEAT 290527Z 2906/3006 12003KT P6SM OVC006
     FM291000 00000KT 5SM -DZ BR OVC005
     FM292000 12003KT 6SM BR OVC005
     FM292300 27004KT P6SM OVC010=



000
FTUS46 KOTX 290527
TAFPUW
TAF
KPUW 290527Z 2906/3006 VRB03KT P6SM SKC
     FM290900 11005KT P6SM FEW005
     FM291800 10003KT P6SM SCT012 BKN100
     FM300200 28004KT P6SM BKN009=



000
FTUS46 KOTX 290527
TAFMWH
TAF
KMWH 290527Z 2906/3006 35005KT P6SM OVC014
     FM290900 01003KT P6SM OVC012
     FM291300 35004KT 5SM BR OVC007
     FM291800 05004KT P6SM BKN014=



000
FTUS46 KOTX 290527
TAFSFF
TAF
KSFF 290527Z 2906/3006 00000KT 1/2SM FZFG VV004
     FM290800 00000KT 1/4SM FZFG VV002
     FM291900 00000KT 1SM BR OVC006
     FM292100 35003KT 6SM BR BKN010
     FM292300 35003KT P6SM SCT010=



000
FTUS46 KOTX 290527
TAFGEG
TAF
KGEG 290527Z 2906/3006 04003KT 3SM BCFG FEW002 SCT008
     FM290800 06003KT 1/2SM FZFG VV002
     FM291900 04004KT 1SM BR OVC005
     FM292200 VRB03KT 6SM BR BKN005
     FM300200 35003KT 6SM BR SCT005=



000
FTUS46 KOTX 290527
TAFEAT
TAF
KEAT 290527Z 2906/3006 12003KT P6SM OVC006
     FM291000 00000KT 5SM -DZ BR OVC005
     FM292000 12003KT 6SM BR OVC005
     FM292300 27004KT P6SM OVC010=



000
FTUS46 KOTX 290527
TAFLWS
TAF
KLWS 290527Z 2906/3006 VRB03KT P6SM SKC
     FM291000 00000KT 1SM BR VV002
     FM291900 00000KT P6SM SCT012 BKN100
     FM300400 VRB02KT P6SM SCT010 BKN020=



000
FTUS46 KOTX 290527
TAFMWH
TAF
KMWH 290527Z 2906/3006 35005KT P6SM OVC014
     FM290900 01003KT P6SM OVC012
     FM291300 35004KT 5SM BR OVC007
     FM291800 05004KT P6SM BKN014=



000
FTUS46 KOTX 290527
TAFCOE
TAF
KCOE 290527Z 2906/3006 07006KT 6SM BR FEW002 SCT025
     FM290800 05007KT P6SM OVC012
     FM291500 04006KT P6SM OVC008
     FM291700 04005KT P6SM BKN015
     FM292200 01004KT P6SM SCT020
      AMD LTD TO CLD AND VIS=



000
FTUS46 KOTX 290527
TAFSFF
TAF
KSFF 290527Z 2906/3006 00000KT 1/2SM FZFG VV004
     FM290800 00000KT 1/4SM FZFG VV002
     FM291900 00000KT 1SM BR OVC006
     FM292100 35003KT 6SM BR BKN010
     FM292300 35003KT P6SM SCT010=



000
FTUS46 KOTX 290527
TAFPUW
TAF
KPUW 290527Z 2906/3006 VRB03KT P6SM SKC
     FM290900 11005KT P6SM FEW005
     FM291800 10003KT P6SM SCT012 BKN100
     FM300200 28004KT P6SM BKN009=



000
FTUS46 KOTX 290346 AAA
TAFEAT
TAF AMD
KEAT 290346Z 2904/2924 12003KT P6SM OVC007
     FM290800 30002KT 5SM BR OVC008
     FM291200 00000KT 1SM -DZ BR VV002
     FM292000 12003KT 5SM BR OVC005=



000
FTUS46 KOTX 290346 AAA
TAFEAT
TAF AMD
KEAT 290346Z 2904/2924 12003KT P6SM OVC007
     FM290800 30002KT 5SM BR OVC008
     FM291200 00000KT 1SM -DZ BR VV002
     FM292000 12003KT 5SM BR OVC005=



000
FTUS46 KOTX 290345 AAA
TAFSFF
TAF AMD
KSFF 290345Z 2904/2924 00000KT 5SM BCFG SCT001
     FM290800 00000KT 1/2SM FG VV002
     FM291500 00000KT 5SM BR OVC007
     FM292100 00000KT P6SM SCT012=



000
FTUS46 KOTX 290345 AAA
TAFSFF
TAF AMD
KSFF 290345Z 2904/2924 00000KT 5SM BCFG SCT001
     FM290800 00000KT 1/2SM FG VV002
     FM291500 00000KT 5SM BR OVC007
     FM292100 00000KT P6SM SCT012=



000
FTUS46 KOTX 290344 AAA
TAFGEG
TAF AMD
KGEG 290344Z 2904/2924 04003KT 3SM BCFG SCT002
     FM290800 06003KT 1/2SM FG VV002
     FM291900 04004KT 5SM BR OVC005
     FM292200 VRB03KT 6SM BR BKN005=



000
FTUS46 KOTX 290344 AAA
TAFGEG
TAF AMD
KGEG 290344Z 2904/2924 04003KT 3SM BCFG SCT002
     FM290800 06003KT 1/2SM FG VV002
     FM291900 04004KT 5SM BR OVC005
     FM292200 VRB03KT 6SM BR BKN005=



000
FTUS46 KOTX 282330
TAFGEG
TAF
KGEG 282330Z 2900/2924 04003KT 3SM BR OVC002
     FM290100 06005KT 5SM BR BKN003
     FM290800 06003KT 1SM BR OVC002
     FM291900 04004KT 5SM BR OVC005
     FM292200 VRB03KT 6SM BR BKN005=



000
FTUS46 KOTX 282330
TAFLWS
TAF
KLWS 282330Z 2900/2924 VRB03KT P6SM SKC
     FM291000 00000KT 1SM BR OVC005
     FM292000 00000KT P6SM SCT012 BKN100=



000
FTUS46 KOTX 282330
TAFEAT
TAF
KEAT 282330Z 2900/2924 12005KT P6SM OVC009
     FM290200 12003KT P6SM OVC012
     FM290800 30002KT 5SM BR OVC008
     FM291200 00000KT 1SM -DZ BR VV002
     FM292000 12003KT 5SM BR OVC005=



000
FTUS46 KOTX 282330
TAFCOE
TAF
KCOE 282330Z 2900/2924 02004KT P6SM OVC025
     FM290700 05007KT P6SM OVC012
     FM291500 04006KT P6SM OVC008
     FM291700 04005KT P6SM BKN015
     FM292200 01004KT P6SM SCT020
      AMD LTD TO CLD AND VIS=



000
FTUS46 KOTX 282330
TAFPUW
TAF
KPUW 282330Z 2900/2924 VRB03KT P6SM SCT020
     FM290200 10005KT P6SM SKC
     FM291400 11005KT P6SM SCT008
     FM291800 10003KT P6SM SCT012 BKN100=



000
FTUS46 KOTX 282330
TAFMWH
TAF
KMWH 282330Z 2900/2924 35005KT P6SM OVC008
     FM290300 01003KT P6SM OVC012
     FM291000 35004KT 5SM BR OVC007
     FM291800 05004KT P6SM BKN009 BKN150
     FM292200 04005KT P6SM SCT010 OVC080=



000
FTUS46 KOTX 282330
TAFSFF
TAF
KSFF 282330Z 2900/2924 00000KT P6SM OVC015
     FM291500 00000KT 5SM BR OVC007
     FM292100 00000KT P6SM SCT012=



000
FTUS46 KOTX 282330
TAFCOE
TAF
KCOE 282330Z 2900/2924 02004KT P6SM OVC025
     FM290700 05007KT P6SM OVC012
     FM291500 04006KT P6SM OVC008
     FM291700 04005KT P6SM BKN015
     FM292200 01004KT P6SM SCT020
      AMD LTD TO CLD AND VIS=



000
FTUS46 KOTX 282330
TAFGEG
TAF
KGEG 282330Z 2900/2924 04003KT 3SM BR OVC002
     FM290100 06005KT 5SM BR BKN003
     FM290800 06003KT 1SM BR OVC002
     FM291900 04004KT 5SM BR OVC005
     FM292200 VRB03KT 6SM BR BKN005=



000
FTUS46 KOTX 282330
TAFPUW
TAF
KPUW 282330Z 2900/2924 VRB03KT P6SM SCT020
     FM290200 10005KT P6SM SKC
     FM291400 11005KT P6SM SCT008
     FM291800 10003KT P6SM SCT012 BKN100=



000
FTUS46 KOTX 282330
TAFLWS
TAF
KLWS 282330Z 2900/2924 VRB03KT P6SM SKC
     FM291000 00000KT 1SM BR OVC005
     FM292000 00000KT P6SM SCT012 BKN100=



000
FTUS46 KOTX 282330
TAFMWH
TAF
KMWH 282330Z 2900/2924 35005KT P6SM OVC008
     FM290300 01003KT P6SM OVC012
     FM291000 35004KT 5SM BR OVC007
     FM291800 05004KT P6SM BKN009 BKN150
     FM292200 04005KT P6SM SCT010 OVC080=



000
FTUS46 KOTX 282330
TAFEAT
TAF
KEAT 282330Z 2900/2924 12005KT P6SM OVC009
     FM290200 12003KT P6SM OVC012
     FM290800 30002KT 5SM BR OVC008
     FM291200 00000KT 1SM -DZ BR VV002
     FM292000 12003KT 5SM BR OVC005=



000
FTUS46 KOTX 282110 AAC
TAFPUW
TAF AMD
KPUW 282110Z 2821/2918 16004KT P6SM BKN025
     FM290100 10005KT P6SM SCT025
     FM290600 09005KT P6SM SKC
     FM291400 11005KT P6SM SCT008 BKN150=



000
FTUS46 KOTX 282110 AAC
TAFPUW
TAF AMD
KPUW 282110Z 2821/2918 16004KT P6SM BKN025
     FM290100 10005KT P6SM SCT025
     FM290600 09005KT P6SM SKC
     FM291400 11005KT P6SM SCT008 BKN150=



000
FTUS46 KOTX 282109 AAA
TAFCOE
TAF AMD
KCOE 282109Z 2821/2918 24003KT P6SM SCT015 OVC020
     FM282300 25003KT P6SM SCT005 BKN025
     FM290700 05007KT P6SM OVC012
      AMD LTD TO CLD AND VIS=



000
FTUS46 KOTX 282109 AAA
TAFCOE
TAF AMD
KCOE 282109Z 2821/2918 24003KT P6SM SCT015 OVC020
     FM282300 25003KT P6SM SCT005 BKN025
     FM290700 05007KT P6SM OVC012
      AMD LTD TO CLD AND VIS=



000
FTUS46 KOTX 282108 AAA
TAFSFF
TAF AMD
KSFF 282108Z 2821/2918 00000KT P6SM OVC015
     FM291500 00000KT 5SM BR OVC007=



000
FTUS46 KOTX 282108 AAA
TAFSFF
TAF AMD
KSFF 282108Z 2821/2918 00000KT P6SM OVC015
     FM291500 00000KT 5SM BR OVC007=



000
FTUS46 KOTX 282016 AAB
TAFLWS
TAF AMD
KLWS 282016Z 2820/2918 VRB02KT P6SM OVC005
     FM282100 VRB02KT P6SM BKN007
     FM282200 VRB03KT P6SM SCT008
     FM290600 10003KT P6SM SCT100
     FM291000 00000KT 1SM BR OVC005=



000
FTUS46 KOTX 282016 AAB
TAFLWS
TAF AMD
KLWS 282016Z 2820/2918 VRB02KT P6SM OVC005
     FM282100 VRB02KT P6SM BKN007
     FM282200 VRB03KT P6SM SCT008
     FM290600 10003KT P6SM SCT100
     FM291000 00000KT 1SM BR OVC005=



000
FTUS46 KOTX 282014 AAB
TAFPUW
TAF AMD
KPUW 282014Z 2820/2918 16004KT P6SM SCT020
      TEMPO 2821/2901 BKN025
     FM290100 10005KT P6SM SKC
     FM290600 09005KT P6SM SKC
     FM291400 11005KT P6SM SCT008 BKN150=



000
FTUS46 KOTX 281850 AAA
TAFPUW
TAF AMD
KPUW 281850Z 2819/2918 14006KT P6SM OVC010
     FM281930 16004KT P6SM SCT008
     FM290100 10005KT P6SM SKC
     FM290600 09005KT P6SM SKC
     FM291400 11005KT P6SM SCT008 BKN150=



000
FTUS46 KOTX 281850 AAA
TAFPUW
TAF AMD
KPUW 281850Z 2819/2918 14006KT P6SM OVC010
     FM281930 16004KT P6SM SCT008
     FM290100 10005KT P6SM SKC
     FM290600 09005KT P6SM SKC
     FM291400 11005KT P6SM SCT008 BKN150=



000
FTUS46 KOTX 281849 AAA
TAFLWS
TAF AMD
KLWS 281849Z 2819/2918 VRB02KT 5SM BR OVC003
     FM282100 VRB02KT P6SM SCT008
     FM290600 10003KT P6SM SCT100
     FM291000 00000KT 1SM BR OVC005=



000
FTUS46 KOTX 281849 AAA
TAFLWS
TAF AMD
KLWS 281849Z 2819/2918 VRB02KT 5SM BR OVC003
     FM282100 VRB02KT P6SM SCT008
     FM290600 10003KT P6SM SCT100
     FM291000 00000KT 1SM BR OVC005=



000
FTUS46 KOTX 281731
TAFSFF
TAF
KSFF 281731Z 2818/2918 VRB03KT 3SM BR OVC006
     FM282000 00000KT P6SM OVC007
     FM290600 00000KT P6SM OVC015
     FM291500 00000KT 5SM BR OVC004=



000
FTUS46 KOTX 281731
TAFMWH
TAF
KMWH 281731Z 2818/2918 13003KT 4SM BR OVC005
     FM282100 35005KT 6SM BR OVC008
     FM290800 01003KT P6SM OVC012=



000
FTUS46 KOTX 281731
TAFGEG
TAF
KGEG 281731Z 2818/2918 13003KT 1/4SM -DZ FG VV002
     FM282000 VRB03KT 1/2SM -DZ FG OVC002
     FM282200 08003KT 1SM BR OVC004
     FM290100 07002KT 3SM BCFG BKN002
     FM290800 06003KT 1SM BR OVC003=



000
FTUS46 KOTX 281731
TAFPUW
TAF
KPUW 281731Z 2818/2918 14006KT P6SM OVC010
     FM282100 16004KT P6SM BKN010
     FM290100 10005KT P6SM BKN020
     FM290600 09005KT P6SM SCT020
     FM291400 11005KT P6SM SCT008 BKN150=



000
FTUS46 KOTX 281731
TAFGEG
TAF
KGEG 281731Z 2818/2918 13003KT 1/4SM -DZ FG VV002
     FM282000 VRB03KT 1/2SM -DZ FG OVC002
     FM282200 08003KT 1SM BR OVC004
     FM290100 07002KT 3SM BCFG BKN002
     FM290800 06003KT 1SM BR OVC003=



000
FTUS46 KOTX 281731
TAFCOE
TAF
KCOE 281731Z 2818/2918 24003KT P6SM OVC008
     FM282300 25003KT P6SM SCT005 BKN010
     FM290700 05007KT P6SM OVC008
      AMD LTD TO CLD AND VIS=



000
FTUS46 KOTX 281731
TAFLWS
TAF
KLWS 281731Z 2818/2918 13003KT 1/2SM FG VV004
     FM281830 VRB02KT 1SM BR BKN005
     FM282000 VRB02KT P6SM SCT008
     FM290600 10003KT P6SM SCT100
     FM291000 00000KT 1SM BR OVC005=



000
FTUS46 KOTX 281731
TAFLWS
TAF
KLWS 281731Z 2818/2918 13003KT 1/2SM FG VV004
     FM281830 VRB02KT 1SM BR BKN005
     FM282000 VRB02KT P6SM SCT008
     FM290600 10003KT P6SM SCT100
     FM291000 00000KT 1SM BR OVC005=



000
FTUS46 KOTX 281731
TAFPUW
TAF
KPUW 281731Z 2818/2918 14006KT P6SM OVC010
     FM282100 16004KT P6SM BKN010
     FM290100 10005KT P6SM BKN020
     FM290600 09005KT P6SM SCT020
     FM291400 11005KT P6SM SCT008 BKN150=



000
FTUS46 KOTX 281731
TAFMWH
TAF
KMWH 281731Z 2818/2918 13003KT 4SM BR OVC005
     FM282100 35005KT 6SM BR OVC008
     FM290800 01003KT P6SM OVC012=



000
FTUS46 KOTX 281731
TAFEAT
TAF
KEAT 281731Z 2818/2918 VRB03KT 2SM BR OVC005
     FM282100 30002KT P6SM OVC007
     FM290400 30002KT 5SM BR OVC006
     FM291000 00000KT 1/2SM FG VV002=



000
FTUS46 KOTX 281731
TAFCOE
TAF
KCOE 281731Z 2818/2918 24003KT P6SM OVC008
     FM282300 25003KT P6SM SCT005 BKN010
     FM290700 05007KT P6SM OVC008
      AMD LTD TO CLD AND VIS=



000
FTUS46 KOTX 281731
TAFSFF
TAF
KSFF 281731Z 2818/2918 VRB03KT 3SM BR OVC006
     FM282000 00000KT P6SM OVC007
     FM290600 00000KT P6SM OVC015
     FM291500 00000KT 5SM BR OVC004=



000
FTUS46 KOTX 281731
TAFEAT
TAF
KEAT 281731Z 2818/2918 VRB03KT 2SM BR OVC005
     FM282100 30002KT P6SM OVC007
     FM290400 30002KT 5SM BR OVC006
     FM291000 00000KT 1/2SM FG VV002=



000
FTUS46 KOTX 281643 AAA
TAFMWH
TAF AMD
KMWH 281643Z 2817/2912 13003KT 4SM BR OVC005
     FM282100 35005KT 6SM BR OVC008
     FM290200 01003KT 1/2SM FG VV002=



000
FTUS46 KOTX 281643 AAA
TAFEAT
TAF AMD
KEAT 281643Z 2817/2912 28002KT 1/2SM FG VV002
     FM281800 30003KT 1SM BR OVC005
     FM282100 30002KT P6SM OVC007
     FM290400 30002KT 5SM BR OVC003=



000
FTUS46 KOTX 281643 AAA
TAFEAT
TAF AMD
KEAT 281643Z 2817/2912 28002KT 1/2SM FG VV002
     FM281800 30003KT 1SM BR OVC005
     FM282100 30002KT P6SM OVC007
     FM290400 30002KT 5SM BR OVC003=



000
FTUS46 KOTX 281642 AAA
TAFSFF
TAF AMD
KSFF 281642Z 2817/2912 20002KT 3SM BR OVC006
     FM281900 19002KT 5SM BR OVC008
     FM282100 VRB03KT P6SM OVC012
     FM290400 VRB02KT 5SM BR OVC010=



000
FTUS46 KOTX 281642 AAA
TAFSFF
TAF AMD
KSFF 281642Z 2817/2912 20002KT 3SM BR OVC006
     FM281900 19002KT 5SM BR OVC008
     FM282100 VRB03KT P6SM OVC012
     FM290400 VRB02KT 5SM BR OVC010=



000
FTUS46 KOTX 281641 AAB
TAFPUW
TAF AMD
KPUW 281641Z 2817/2912 27003KT 3SM BR OVC009
     FM282100 16004KT P6SM BKN010
     FM290100 10005KT P6SM BKN020
     FM290600 09005KT P6SM SCT020=



000
FTUS46 KOTX 281641 AAB
TAFPUW
TAF AMD
KPUW 281641Z 2817/2912 27003KT 3SM BR OVC009
     FM282100 16004KT P6SM BKN010
     FM290100 10005KT P6SM BKN020
     FM290600 09005KT P6SM SCT020=



000
FTUS46 KOTX 281419 AAA
TAFLWS
TAF AMD
KLWS 281419Z 2814/2912 13003KT 1/2SM FG VV002
     FM281800 VRB02KT 4SM BR BKN004
     FM282200 VRB02KT P6SM OVC020
     FM290600 10003KT P6SM BKN030=



000
FTUS46 KOTX 281419 AAA
TAFLWS
TAF AMD
KLWS 281419Z 2814/2912 13003KT 1/2SM FG VV002
     FM281800 VRB02KT 4SM BR BKN004
     FM282200 VRB02KT P6SM OVC020
     FM290600 10003KT P6SM BKN030=



000
FTUS46 KOTX 281419 AAA
TAFLWS
TAF AMD
KLWS 281419Z 2814/2912 13003KT 1/2SM FG VV002
     FM281800 VRB02KT 4SM BR BKN004
     FM282200 VRB02KT P6SM OVC020
     FM290600 10003KT P6SM BKN030=



000
FTUS46 KOTX 281419 AAA
TAFLWS
TAF AMD
KLWS 281419Z 2814/2912 13003KT 1/2SM FG VV002
     FM281800 VRB02KT 4SM BR BKN004
     FM282200 VRB02KT P6SM OVC020
     FM290600 10003KT P6SM BKN030=



000
FTUS46 KOTX 281328 AAA
TAFPUW
TAF AMD
KPUW 281328Z 2813/2912 27009KT 3SM BR OVC002
      TEMPO 2813/2815 1/2SM FG VV002
     FM281600 24004KT 6SM BR SCT002 OVC006
     FM281900 16004KT P6SM BKN008
     FM290100 10005KT P6SM BKN020
     FM290600 09005KT P6SM SCT020=



000
FTUS46 KOTX 281328 AAA
TAFPUW
TAF AMD
KPUW 281328Z 2813/2912 27009KT 3SM BR OVC002
      TEMPO 2813/2815 1/2SM FG VV002
     FM281600 24004KT 6SM BR SCT002 OVC006
     FM281900 16004KT P6SM BKN008
     FM290100 10005KT P6SM BKN020
     FM290600 09005KT P6SM SCT020=



000
FTUS46 KOTX 281327 AAA
TAFCOE
TAF AMD
KCOE 281327Z 2813/2912 24003KT 3SM BR OVC005
     FM282300 25003KT P6SM SCT005 BKN010
     FM290700 05004KT 5SM BR SCT003 OVC010
      AMD LTD TO CLD AND VIS=



000
FTUS46 KOTX 281327 AAA
TAFCOE
TAF AMD
KCOE 281327Z 2813/2912 24003KT 3SM BR OVC005
     FM282300 25003KT P6SM SCT005 BKN010
     FM290700 05004KT 5SM BR SCT003 OVC010
      AMD LTD TO CLD AND VIS=



000
FTUS46 KOTX 281130 CCA
TAFPUW
TAF COR
KPUW 281130Z 2812/2912 27009KT 1SM BR OVC002
      TEMPO 2812/2815 1/2SM FG VV002
     FM281600 24004KT 6SM BR SCT002 OVC006
     FM281900 16004KT P6SM BKN008
     FM290100 10005KT P6SM BKN020
     FM290600 09005KT P6SM SCT020=



000
FTUS46 KOTX 281130 CCA
TAFPUW
TAF COR
KPUW 281130Z 2812/2912 27009KT 1SM BR OVC002
      TEMPO 2812/2815 1/2SM FG VV002
     FM281600 24004KT 6SM BR SCT002 OVC006
     FM281900 16004KT P6SM BKN008
     FM290100 10005KT P6SM BKN020
     FM290600 09005KT P6SM SCT020=



000
FTUS46 KOTX 281129
TAFMWH
TAF
KMWH 281129Z 2812/2912 13003KT 1SM BR OVC002
     FM282100 35005KT 6SM BR OVC005
     FM290200 01003KT 1/2SM FG VV002=



000
FTUS46 KOTX 281129
TAFGEG
TAF
KGEG 281129Z 2812/2912 13003KT 1SM -DZ BR BKN002
     FM282000 VRB03KT 3/4SM BR OVC004
     FM282200 08003KT P6SM BKN008
     FM290600 07002KT 3SM BCFG BKN002
     FM290800 06003KT 1SM BR OVC003=



000
FTUS46 KOTX 281129
TAFSFF
TAF
KSFF 281129Z 2812/2912 20002KT P6SM OVC006
      TEMPO 2812/2816 3SM BR OVC004
     FM281900 19002KT P6SM OVC008
     FM282100 VRB03KT P6SM OVC012
     FM290400 VRB02KT 5SM BR OVC010=



000
FTUS46 KOTX 281129
TAFCOE
TAF
KCOE 281129Z 2812/2912 24004KT 5SM BR OVC005
     FM282300 25003KT P6SM SCT005 BKN010
     FM290700 05004KT 5SM BR SCT003 OVC010
      AMD LTD TO CLD AND VIS=



000
FTUS46 KOTX 281129
TAFLWS
TAF
KLWS 281129Z 2812/2912 10002KT P6SM BKN060
     FM290600 10003KT P6SM BKN050=



000
FTUS46 KOTX 281129
TAFEAT
TAF
KEAT 281129Z 2812/2912 28002KT 1/2SM FG VV002
     FM281800 30003KT 5SM BR OVC005
     FM282100 30002KT P6SM OVC007
     FM290400 30002KT 5SM BR OVC003=



000
FTUS46 KOTX 281129
TAFPUW
TAF
KPUW 281129Z 2812/2912 27009KT 1/2SM FG OVC002
     FM281600 24004KT 6SM BR SCT002 OVC006
     FM281900 16004KT P6SM BKN008
     FM290100 10005KT P6SM BKN020
     FM290600 09005KT P6SM SCT020=



000
FTUS46 KOTX 281129
TAFCOE
TAF
KCOE 281129Z 2812/2912 24004KT 5SM BR OVC005
     FM282300 25003KT P6SM SCT005 BKN010
     FM290700 05004KT 5SM BR SCT003 OVC010
      AMD LTD TO CLD AND VIS=



000
FTUS46 KOTX 281129
TAFLWS
TAF
KLWS 281129Z 2812/2912 10002KT P6SM BKN060
     FM290600 10003KT P6SM BKN050=



000
FTUS46 KOTX 281129
TAFMWH
TAF
KMWH 281129Z 2812/2912 13003KT 1SM BR OVC002
     FM282100 35005KT 6SM BR OVC005
     FM290200 01003KT 1/2SM FG VV002=



000
FTUS46 KOTX 281129
TAFEAT
TAF
KEAT 281129Z 2812/2912 28002KT 1/2SM FG VV002
     FM281800 30003KT 5SM BR OVC005
     FM282100 30002KT P6SM OVC007
     FM290400 30002KT 5SM BR OVC003=



000
FTUS46 KOTX 281129
TAFPUW
TAF
KPUW 281129Z 2812/2912 27009KT 1/2SM FG OVC002
     FM281600 24004KT 6SM BR SCT002 OVC006
     FM281900 16004KT P6SM BKN008
     FM290100 10005KT P6SM BKN020
     FM290600 09005KT P6SM SCT020=



000
FTUS46 KOTX 281129
TAFGEG
TAF
KGEG 281129Z 2812/2912 13003KT 1SM -DZ BR BKN002
     FM282000 VRB03KT 3/4SM BR OVC004
     FM282200 08003KT P6SM BKN008
     FM290600 07002KT 3SM BCFG BKN002
     FM290800 06003KT 1SM BR OVC003=



000
FTUS46 KOTX 281129
TAFSFF
TAF
KSFF 281129Z 2812/2912 20002KT P6SM OVC006
      TEMPO 2812/2816 3SM BR OVC004
     FM281900 19002KT P6SM OVC008
     FM282100 VRB03KT P6SM OVC012
     FM290400 VRB02KT 5SM BR OVC010=



000
FTUS46 KOTX 280907 AAA
TAFMWH
TAF AMD
KMWH 280907Z 2809/2906 10003KT 2SM BR OVC002
     FM282000 VRB03KT 3SM BR OVC005
     FM282200 VRB04KT P6SM OVC006
     FM290300 01003KT 1/2SM FG VV002=



000
FTUS46 KOTX 280907 AAA
TAFMWH
TAF AMD
KMWH 280907Z 2809/2906 10003KT 2SM BR OVC002
     FM282000 VRB03KT 3SM BR OVC005
     FM282200 VRB04KT P6SM OVC006
     FM290300 01003KT 1/2SM FG VV002=



000
FTUS46 KOTX 280907 AAA
TAFMWH
TAF AMD
KMWH 280907Z 2809/2906 10003KT 2SM BR OVC002
     FM282000 VRB03KT 3SM BR OVC005
     FM282200 VRB04KT P6SM OVC006
     FM290300 01003KT 1/2SM FG VV002=



000
FTUS46 KOTX 280841 AAC
TAFPUW
TAF AMD
KPUW 280841Z 2809/2906 27009KT 1/2SM FG OVC002
     FM281400 24004KT 6SM BR SCT002 OVC006
     FM281900 16004KT P6SM SCT008
     FM290100 10005KT P6SM SCT200=



000
FTUS46 KOTX 280841 AAC
TAFPUW
TAF AMD
KPUW 280841Z 2809/2906 27009KT 1/2SM FG OVC002
     FM281400 24004KT 6SM BR SCT002 OVC006
     FM281900 16004KT P6SM SCT008
     FM290100 10005KT P6SM SCT200=



000
FTUS46 KOTX 280831 AAA
TAFSFF
TAF AMD
KSFF 280831Z 2809/2906 20002KT 2SM BR OVC006
     FM281900 VRB03KT 6SM BR BKN008
     FM282100 VRB03KT P6SM SCT008
     FM290400 VRB02KT 1/2SM FG VV002=



000
FTUS46 KOTX 280831 AAA
TAFSFF
TAF AMD
KSFF 280831Z 2809/2906 20002KT 2SM BR OVC006
     FM281900 VRB03KT 6SM BR BKN008
     FM282100 VRB03KT P6SM SCT008
     FM290400 VRB02KT 1/2SM FG VV002=



000
FTUS46 KOTX 280821 CCB
TAFCOE
TAF COR
KCOE 280821Z 2808/2906 25004KT P6SM BKN008 OVC015
     FM281300 23004KT 4SM BR OVC007
     FM282200 25003KT P6SM SCT008 BKN250
     FM290400 05004KT 2SM BR BCFG SCT003
      AMD LTD TO CLD AND VIS=



000
FTUS46 KOTX 280821 CCB
TAFCOE
TAF COR
KCOE 280821Z 2808/2906 25004KT P6SM BKN008 OVC015
     FM281300 23004KT 4SM BR OVC007
     FM282200 25003KT P6SM SCT008 BKN250
     FM290400 05004KT 2SM BR BCFG SCT003
      AMD LTD TO CLD AND VIS=



000
FTUS46 KOTX 280820 AAA
TAFCOE
TAF AMD
KCOE 280820Z 2808/2906 25004KT P6SM SCT008 OVC015
     FM281300 23004KT 4SM BR OVC007
     FM282200 25003KT P6SM SCT008 BKN250
     FM290400 05004KT 2SM BR BCFG SCT003
      AMD LTD TO CLD AND VIS=



000
FTUS46 KOTX 280820 AAA
TAFCOE
TAF AMD
KCOE 280820Z 2808/2906 25004KT P6SM SCT008 OVC015
     FM281300 23004KT 4SM BR OVC007
     FM282200 25003KT P6SM SCT008 BKN250
     FM290400 05004KT 2SM BR BCFG SCT003
      AMD LTD TO CLD AND VIS=



000
FTUS46 KOTX 280818 AAB
TAFPUW
TAF AMD
KPUW 280818Z 2808/2906 27008KT P6SM SCT004 OVC007
     FM281200 24004KT 6SM BR SCT003 OVC006
     FM281900 16004KT P6SM SCT008
     FM290100 10005KT P6SM SCT200=



000
FTUS46 KOTX 280818 AAB
TAFPUW
TAF AMD
KPUW 280818Z 2808/2906 27008KT P6SM SCT004 OVC007
     FM281200 24004KT 6SM BR SCT003 OVC006
     FM281900 16004KT P6SM SCT008
     FM290100 10005KT P6SM SCT200=



000
FTUS46 KOTX 280742 AAA
TAFPUW
TAF AMD
KPUW 280742Z 2808/2906 28004KT P6SM OVC008
     FM280800 25004KT 2SM BR OVC004
     FM281900 16004KT P6SM SCT008
     FM290100 10005KT P6SM SCT200=



000
FTUS46 KOTX 280742 AAA
TAFPUW
TAF AMD
KPUW 280742Z 2808/2906 28004KT P6SM OVC008
     FM280800 25004KT 2SM BR OVC004
     FM281900 16004KT P6SM SCT008
     FM290100 10005KT P6SM SCT200=



000
FTUS46 KOTX 280725 AAA
TAFEAT
TAF AMD
KEAT 280725Z 2807/2906 28002KT 1/2SM FG OVC002
     FM281800 30003KT 5SM BR OVC005
     FM282100 30002KT P6SM OVC007
     FM290400 30002KT 5SM BR OVC005=



000
FTUS46 KOTX 280725 AAA
TAFEAT
TAF AMD
KEAT 280725Z 2807/2906 28002KT 1/2SM FG OVC002
     FM281800 30003KT 5SM BR OVC005
     FM282100 30002KT P6SM OVC007
     FM290400 30002KT 5SM BR OVC005=



000
FTUS46 KOTX 280600 CCA
TAFEAT
TAF COR
KEAT 280600Z 2806/2906 28004KT 3SM BR OVC003
     FM281800 30003KT 5SM BR OVC005
     FM282100 30002KT P6SM OVC007
     FM290400 30002KT 5SM BR OVC005=



000
FTUS46 KOTX 280600 CCA
TAFEAT
TAF COR
KEAT 280600Z 2806/2906 28004KT 3SM BR OVC003
     FM281800 30003KT 5SM BR OVC005
     FM282100 30002KT P6SM OVC007
     FM290400 30002KT 5SM BR OVC005=



000
FTUS46 KOTX 280600 CCA
TAFEAT
TAF COR
KEAT 280600Z 2806/2906 28004KT 3SM BR OVC003
     FM281800 30003KT 5SM BR OVC005
     FM282100 30002KT P6SM OVC007
     FM290400 30002KT 5SM BR OVC005=



000
FTUS46 KOTX 280535 CCA
TAFPUW
TAF COR
KPUW 280535Z 2806/2906 28004KT P6SM OVC008
     FM280800 25004KT 2SM BR OVC006
     FM281900 16004KT P6SM SCT008
     FM290100 10005KT P6SM SCT200=



000
FTUS46 KOTX 280535 CCA
TAFPUW
TAF COR
KPUW 280535Z 2806/2906 28004KT P6SM OVC008
     FM280800 25004KT 2SM BR OVC006
     FM281900 16004KT P6SM SCT008
     FM290100 10005KT P6SM SCT200=



000
FTUS46 KOTX 280535 CCA
TAFCOE
TAF COR
KCOE 280535Z 2806/2906 25004KT P6SM OVC016
     FM280700 24004KT 6SM BR OVC016
     FM281300 23004KT 4SM BR OVC007
     FM282200 25003KT P6SM SCT008 BKN250
     FM290400 05004KT 2SM BR BCFG SCT003
      AMD LTD TO CLD AND VIS=



000
FTUS46 KOTX 280535 CCA
TAFCOE
TAF COR
KCOE 280535Z 2806/2906 25004KT P6SM OVC016
     FM280700 24004KT 6SM BR OVC016
     FM281300 23004KT 4SM BR OVC007
     FM282200 25003KT P6SM SCT008 BKN250
     FM290400 05004KT 2SM BR BCFG SCT003
      AMD LTD TO CLD AND VIS=



000
FTUS46 KOTX 280520
TAFLWS
TAF
KLWS 280520Z 2806/2906 18004KT P6SM BKN150
     FM281200 21002KT P6SM BCFG FEW001 SCT100
      TEMPO 2813/2817 1SM BR VV002
     FM281800 00000KT P6SM BKN200=



000
FTUS46 KOTX 280520
TAFLWS
TAF
KLWS 280520Z 2806/2906 18004KT P6SM BKN150
     FM281200 21002KT P6SM BCFG FEW001 SCT100
      TEMPO 2813/2817 1SM BR VV002
     FM281800 00000KT P6SM BKN200=



000
FTUS46 KOTX 280520
TAFEAT
TAF
KEAT 280520Z 2806/2906 28004KT 6SM BR OVC004
     FM280900 32002KT 2SM BR OVC003
     FM281800 30003KT 5SM BR OVC005
     FM282100 30002KT P6SM OVC007
     FM290400 30002KT 5SM BR OVC005=



000
FTUS46 KOTX 280520
TAFGEG
TAF
KGEG 280520Z 2806/2906 22007KT 1/2SM FG VV002
     FM282100 VRB03KT 3/4SM BR OVC004
     FM282300 07003KT P6SM BCFG FEW001 SCT010
     FM290300 06003KT 1/2SM FG VV002=



000
FTUS46 KOTX 280520
TAFMWH
TAF
KMWH 280520Z 2806/2906 15003KT 1/4SM FG OVC002
     FM282000 VRB03KT 3SM BR OVC005
     FM282200 VRB04KT P6SM OVC006
     FM290300 01003KT 1/2SM FG VV002=



000
FTUS46 KOTX 280520
TAFCOE
TAF
KCOE 280520Z 2806/2906 25004KT P6SM SCT018
     FM280700 24004KT 6SM BR OVC016
     FM281300 23004KT 4SM BR OVC007
     FM282200 25003KT P6SM SCT008 BKN250
     FM290400 05004KT 2SM BR BCFG SCT003
      AMD LTD TO CLD AND VIS=



000
FTUS46 KOTX 280520
TAFEAT
TAF
KEAT 280520Z 2806/2906 28004KT 6SM BR OVC004
     FM280900 32002KT 2SM BR OVC003
     FM281800 30003KT 5SM BR OVC005
     FM282100 30002KT P6SM OVC007
     FM290400 30002KT 5SM BR OVC005=



000
FTUS46 KOTX 280520
TAFGEG
TAF
KGEG 280520Z 2806/2906 22007KT 1/2SM FG VV002
     FM282100 VRB03KT 3/4SM BR OVC004
     FM282300 07003KT P6SM BCFG FEW001 SCT010
     FM290300 06003KT 1/2SM FG VV002=



000
FTUS46 KOTX 280520
TAFPUW
TAF
KPUW 280520Z 2806/2906 31006KT P6SM SCT120
     FM280700 22004KT 4SM BR OVC008
     FM280800 25004KT 2SM BR OVC006
     FM281900 16004KT P6SM SCT008
     FM290100 10005KT P6SM SCT200=



000
FTUS46 KOTX 280520
TAFSFF
TAF
KSFF 280520Z 2806/2906 24005KT P6SM BKN008
     FM281000 00000KT 4SM BR OVC006
     FM281900 VRB03KT 6SM BR BKN008
     FM282100 VRB03KT P6SM SCT008
     FM290400 VRB02KT 1/2SM FG VV002=



000
FTUS46 KOTX 280520
TAFSFF
TAF
KSFF 280520Z 2806/2906 24005KT P6SM BKN008
     FM281000 00000KT 4SM BR OVC006
     FM281900 VRB03KT 6SM BR BKN008
     FM282100 VRB03KT P6SM SCT008
     FM290400 VRB02KT 1/2SM FG VV002=



000
FTUS46 KOTX 280520
TAFPUW
TAF
KPUW 280520Z 2806/2906 31006KT P6SM SCT120
     FM280700 22004KT 4SM BR OVC008
     FM280800 25004KT 2SM BR OVC006
     FM281900 16004KT P6SM SCT008
     FM290100 10005KT P6SM SCT200=



000
FTUS46 KOTX 280520
TAFMWH
TAF
KMWH 280520Z 2806/2906 15003KT 1/4SM FG OVC002
     FM282000 VRB03KT 3SM BR OVC005
     FM282200 VRB04KT P6SM OVC006
     FM290300 01003KT 1/2SM FG VV002=



000
FTUS46 KOTX 280520
TAFCOE
TAF
KCOE 280520Z 2806/2906 25004KT P6SM SCT018
     FM280700 24004KT 6SM BR OVC016
     FM281300 23004KT 4SM BR OVC007
     FM282200 25003KT P6SM SCT008 BKN250
     FM290400 05004KT 2SM BR BCFG SCT003
      AMD LTD TO CLD AND VIS=



000
FTUS46 KOTX 280329 AAB
TAFMWH
TAF AMD
KMWH 280329Z 2803/2824 19005KT 4SM BR OVC003
     FM281700 VRB03KT 6SM BR OVC006=



000
FTUS46 KOTX 280329 AAB
TAFMWH
TAF AMD
KMWH 280329Z 2803/2824 19005KT 4SM BR OVC003
     FM281700 VRB03KT 6SM BR OVC006=



000
FTUS46 KOTX 280244 AAA
TAFMWH
TAF AMD
KMWH 280244Z 2803/2824 19005KT 1/4SM FG OVC003
     FM281700 VRB03KT 6SM BR OVC006=



000
FTUS46 KOTX 280244 AAA
TAFMWH
TAF AMD
KMWH 280244Z 2803/2824 19005KT 1/4SM FG OVC003
     FM281700 VRB03KT 6SM BR OVC006=



000
FTUS46 KOTX 280244 AAA
TAFMWH
TAF AMD
KMWH 280244Z 2803/2824 19005KT 1/4SM FG OVC003
     FM281700 VRB03KT 6SM BR OVC006=



000
FTUS46 KOTX 280244 AAA
TAFSFF
TAF AMD
KSFF 280244Z 2803/2824 VRB03KT P6SM SCT009 BKN200
     FM280400 VRB03KT P6SM BKN010
     FM281000 00000KT 1SM BR OVC004
     FM281900 VRB03KT 3SM BR BKN008
     FM282100 VRB03KT P6SM SCT008=



000
FTUS46 KOTX 280244 AAA
TAFSFF
TAF AMD
KSFF 280244Z 2803/2824 VRB03KT P6SM SCT009 BKN200
     FM280400 VRB03KT P6SM BKN010
     FM281000 00000KT 1SM BR OVC004
     FM281900 VRB03KT 3SM BR BKN008
     FM282100 VRB03KT P6SM SCT008=



000
FTUS46 KOTX 280244 AAA
TAFMWH
TAF AMD
KMWH 280244Z 2803/2824 19005KT 1/4SM FG OVC003
     FM281700 VRB03KT 6SM BR OVC006=



000
FTUS46 KOTX 280244 AAA
TAFSFF
TAF AMD
KSFF 280244Z 2803/2824 VRB03KT P6SM SCT009 BKN200
     FM280400 VRB03KT P6SM BKN010
     FM281000 00000KT 1SM BR OVC004
     FM281900 VRB03KT 3SM BR BKN008
     FM282100 VRB03KT P6SM SCT008=



000
FTUS46 KOTX 280244 AAA
TAFSFF
TAF AMD
KSFF 280244Z 2803/2824 VRB03KT P6SM SCT009 BKN200
     FM280400 VRB03KT P6SM BKN010
     FM281000 00000KT 1SM BR OVC004
     FM281900 VRB03KT 3SM BR BKN008
     FM282100 VRB03KT P6SM SCT008=



000
FTUS46 KOTX 280243 AAA
TAFGEG
TAF AMD
KGEG 280243Z 2803/2824 VRB03KT P6SM SCT007 BKN140 BKN200
     FM280300 22004KT 3/4SM BR VV002
     FM280500 VRB03KT 1/2SM FG VV002
     FM282100 VRB03KT 2SM BR OVC004=



000
FTUS46 KOTX 280243 AAA
TAFGEG
TAF AMD
KGEG 280243Z 2803/2824 VRB03KT P6SM SCT007 BKN140 BKN200
     FM280300 22004KT 3/4SM BR VV002
     FM280500 VRB03KT 1/2SM FG VV002
     FM282100 VRB03KT 2SM BR OVC004=



000
FTUS46 KOTX 280243 AAA
TAFGEG
TAF AMD
KGEG 280243Z 2803/2824 VRB03KT P6SM SCT007 BKN140 BKN200
     FM280300 22004KT 3/4SM BR VV002
     FM280500 VRB03KT 1/2SM FG VV002
     FM282100 VRB03KT 2SM BR OVC004=



000
FTUS46 KOTX 280243 AAA
TAFGEG
TAF AMD
KGEG 280243Z 2803/2824 VRB03KT P6SM SCT007 BKN140 BKN200
     FM280300 22004KT 3/4SM BR VV002
     FM280500 VRB03KT 1/2SM FG VV002
     FM282100 VRB03KT 2SM BR OVC004=



000
FTUS46 KOTX 272329
TAFSFF
TAF
KSFF 272329Z 2800/2824 VRB03KT P6SM SCT004 BKN200
     FM280500 VRB03KT P6SM BKN012
     FM281000 00000KT 1SM BR OVC004
     FM281900 VRB03KT 3SM BR BKN008
     FM282100 VRB03KT P6SM SCT008=



000
FTUS46 KOTX 272329
TAFCOE
TAF
KCOE 272329Z 2800/2824 VRB03KT P6SM OVC250
     FM280700 VRB03KT P6SM OVC012
     FM281000 21004KT 1/2SM FG OVC003
     FM281900 20002KT 5SM BR OVC007
     FM282100 25003KT P6SM SCT008 BKN250
      AMD LTD TO CLD AND VIS=



000
FTUS46 KOTX 272329
TAFGEG
TAF
KGEG 272329Z 2800/2824 03004KT 6SM BR SCT002 BKN200
     FM280200 04004KT P6SM BKN200
     FM280700 04003KT 3SM BR BKN009
     FM281000 00000KT 1/2SM FZFG VV002
     FM282100 VRB03KT 2SM BR OVC004=



000
FTUS46 KOTX 272329
TAFMWH
TAF
KMWH 272329Z 2800/2824 35005KT 3SM BR OVC003
     FM280300 25003KT P6SM OVC006
     FM280900 35003KT 1/2SM FG OVC003
     FM281700 VRB03KT 6SM BR OVC006=



000
FTUS46 KOTX 272329
TAFEAT
TAF
KEAT 272329Z 2800/2824 00000KT P6SM OVC007
     FM280900 32002KT 1/2SM FG OVC004
     FM281800 30003KT 1 1/2SM BR OVC005
     FM282100 30002KT 4SM BR OVC007=



000
FTUS46 KOTX 272329
TAFPUW
TAF
KPUW 272329Z 2800/2824 15005KT P6SM BKN200
     FM280100 24006KT P6SM SCT010 BKN110
     FM281200 22004KT 5SM BR OVC007
     FM281900 16004KT P6SM SCT008=



000
FTUS46 KOTX 272329
TAFLWS
TAF
KLWS 272329Z 2800/2824 VRB03KT P6SM BKN250
     FM281200 21002KT P6SM SCT015 OVC100
      TEMPO 2813/2817 BKN015
     FM281800 00000KT P6SM OVC250=



000
FTUS46 KOTX 272329
TAFSFF
TAF
KSFF 272329Z 2800/2824 VRB03KT P6SM SCT004 BKN200
     FM280500 VRB03KT P6SM BKN012
     FM281000 00000KT 1SM BR OVC004
     FM281900 VRB03KT 3SM BR BKN008
     FM282100 VRB03KT P6SM SCT008=



000
FTUS46 KOTX 272329
TAFGEG
TAF
KGEG 272329Z 2800/2824 03004KT 6SM BR SCT002 BKN200
     FM280200 04004KT P6SM BKN200
     FM280700 04003KT 3SM BR BKN009
     FM281000 00000KT 1/2SM FZFG VV002
     FM282100 VRB03KT 2SM BR OVC004=



000
FTUS46 KOTX 272329
TAFLWS
TAF
KLWS 272329Z 2800/2824 VRB03KT P6SM BKN250
     FM281200 21002KT P6SM SCT015 OVC100
      TEMPO 2813/2817 BKN015
     FM281800 00000KT P6SM OVC250=



000
FTUS46 KOTX 272329
TAFMWH
TAF
KMWH 272329Z 2800/2824 35005KT 3SM BR OVC003
     FM280300 25003KT P6SM OVC006
     FM280900 35003KT 1/2SM FG OVC003
     FM281700 VRB03KT 6SM BR OVC006=



000
FTUS46 KOTX 272329
TAFEAT
TAF
KEAT 272329Z 2800/2824 00000KT P6SM OVC007
     FM280900 32002KT 1/2SM FG OVC004
     FM281800 30003KT 1 1/2SM BR OVC005
     FM282100 30002KT 4SM BR OVC007=



000
FTUS46 KOTX 272329
TAFPUW
TAF
KPUW 272329Z 2800/2824 15005KT P6SM BKN200
     FM280100 24006KT P6SM SCT010 BKN110
     FM281200 22004KT 5SM BR OVC007
     FM281900 16004KT P6SM SCT008=



000
FTUS46 KOTX 272329
TAFCOE
TAF
KCOE 272329Z 2800/2824 VRB03KT P6SM OVC250
     FM280700 VRB03KT P6SM OVC012
     FM281000 21004KT 1/2SM FG OVC003
     FM281900 20002KT 5SM BR OVC007
     FM282100 25003KT P6SM SCT008 BKN250
      AMD LTD TO CLD AND VIS=



000
FTUS46 KOTX 272030 AAB
TAFCOE
TAF AMD
KCOE 272030Z 2721/2818 07005KT P6SM BKN200
     FM280500 20005KT P6SM BKN010 OVC120
     FM281000 19004KT 1SM BR BKN004
      AMD LTD TO CLD AND VIS=



000
FTUS46 KOTX 272030 AAB
TAFCOE
TAF AMD
KCOE 272030Z 2721/2818 07005KT P6SM BKN200
     FM280500 20005KT P6SM BKN010 OVC120
     FM281000 19004KT 1SM BR BKN004
      AMD LTD TO CLD AND VIS=



000
FTUS46 KOTX 271923 AAA
TAFEAT
TAF AMD
KEAT 271923Z 2719/2818 VRB03KT 3SM BR OVC002
      TEMPO 2719/2722 30004KT 1/4SM -DZ FG VV002
     FM272200 VRB02KT 4SM BR OVC004
     FM280200 VRB03KT 6SM BR OVC006=



000
FTUS46 KOTX 271923 AAA
TAFEAT
TAF AMD
KEAT 271923Z 2719/2818 VRB03KT 3SM BR OVC002
      TEMPO 2719/2722 30004KT 1/4SM -DZ FG VV002
     FM272200 VRB02KT 4SM BR OVC004
     FM280200 VRB03KT 6SM BR OVC006=



000
FTUS46 KOTX 271921 AAA
TAFCOE
TAF AMD
KCOE 271921Z 2719/2818 13003KT 1/4SM FG OVC001
     FM272200 07005KT P6SM BKN200
     FM280500 20005KT P6SM BKN010 OVC120
     FM281000 19004KT 1SM BR BKN004
      AMD LTD TO CLD AND VIS=



000
FTUS46 KOTX 271921 AAA
TAFCOE
TAF AMD
KCOE 271921Z 2719/2818 13003KT 1/4SM FG OVC001
     FM272200 07005KT P6SM BKN200
     FM280500 20005KT P6SM BKN010 OVC120
     FM281000 19004KT 1SM BR BKN004
      AMD LTD TO CLD AND VIS=



000
FTUS46 KOTX 271834 AAA
TAFGEG
TAF AMD
KGEG 271834Z 2719/2818 13004KT 1/4SM FZFG BKN001 OVC006
     FM272300 17005KT 2SM BR SCT005 BKN150
     FM280200 21005KT 3SM BR SCT010 BKN150
     FM280500 20005KT P6SM BKN009 OVC120
     FM281000 22005KT 1/2SM FZFG BKN003=



000
FTUS46 KOTX 271834 AAA
TAFGEG
TAF AMD
KGEG 271834Z 2719/2818 13004KT 1/4SM FZFG BKN001 OVC006
     FM272300 17005KT 2SM BR SCT005 BKN150
     FM280200 21005KT 3SM BR SCT010 BKN150
     FM280500 20005KT P6SM BKN009 OVC120
     FM281000 22005KT 1/2SM FZFG BKN003=



000
FTUS46 KOTX 271730
TAFGEG
TAF
KGEG 271730Z 2718/2818 04003KT 1/2SM -FZDZ FZFG OVC002
     FM271900 13004KT 1SM BR BKN003
     FM272100 17005KT 6SM BR SCT005 BKN150
     FM280500 20005KT P6SM BKN009 OVC120
     FM281000 22005KT 1/2SM FZFG BKN003=



000
FTUS46 KOTX 271730
TAFGEG
TAF
KGEG 271730Z 2718/2818 04003KT 1/2SM -FZDZ FZFG OVC002
     FM271900 13004KT 1SM BR BKN003
     FM272100 17005KT 6SM BR SCT005 BKN150
     FM280500 20005KT P6SM BKN009 OVC120
     FM281000 22005KT 1/2SM FZFG BKN003=



000
FTUS46 KOTX 271730
TAFLWS
TAF
KLWS 271730Z 2718/2818 11008KT P6SM BKN200
     FM280500 17004KT P6SM SCT020 BKN120
     FM281200 VRB03KT P6SM OVC025=



000
FTUS46 KOTX 271730
TAFCOE
TAF
KCOE 271730Z 2718/2818 08004KT 1SM -FZDZ BR BKN005
     FM271900 07005KT P6SM BKN200
     FM280500 20005KT P6SM BKN010 OVC120
     FM281000 19004KT 1SM BR BKN004
      AMD LTD TO CLD AND VIS=



000
FTUS46 KOTX 271730
TAFSFF
TAF
KSFF 271730Z 2718/2818 VRB02KT 3SM BR OVC004
     FM271900 VRB03KT P6SM SCT008 BKN150
     FM280500 20003KT P6SM BKN012 OVC120
     FM281000 22003KT 1SM BR BKN004=



000
FTUS46 KOTX 271730
TAFPUW
TAF
KPUW 271730Z 2718/2818 15007KT P6SM BKN200
     FM280100 24006KT P6SM SCT010 BKN110
     FM281200 22004KT P6SM OVC007=



000
FTUS46 KOTX 271730
TAFSFF
TAF
KSFF 271730Z 2718/2818 VRB02KT 3SM BR OVC004
     FM271900 VRB03KT P6SM SCT008 BKN150
     FM280500 20003KT P6SM BKN012 OVC120
     FM281000 22003KT 1SM BR BKN004=



000
FTUS46 KOTX 271730
TAFCOE
TAF
KCOE 271730Z 2718/2818 08004KT 1SM -FZDZ BR BKN005
     FM271900 07005KT P6SM BKN200
     FM280500 20005KT P6SM BKN010 OVC120
     FM281000 19004KT 1SM BR BKN004
      AMD LTD TO CLD AND VIS=



000
FTUS46 KOTX 271730
TAFEAT
TAF
KEAT 271730Z 2718/2818 30004KT 1/4SM -DZ FG VV002
     FM272000 VRB02KT 1SM BR OVC002
     FM272100 VRB03KT 6SM BR OVC006=



000
FTUS46 KOTX 271730
TAFMWH
TAF
KMWH 271730Z 2718/2818 05004KT 1/2SM -DZ FG VV002
     FM272000 35005KT 3SM BR VCFG BKN006
     FM280000 25003KT P6SM BKN012
     FM280400 29003KT P6SM BKN009=



000
FTUS46 KOTX 271730
TAFLWS
TAF
KLWS 271730Z 2718/2818 11008KT P6SM BKN200
     FM280500 17004KT P6SM SCT020 BKN120
     FM281200 VRB03KT P6SM OVC025=



000
FTUS46 KOTX 271550 AAA
TAFMWH
TAF AMD
KMWH 271550Z 2716/2812 05004KT 1/2SM -DZ FG VV002
     FM271800 35005KT 3SM BR VCFG BKN006
     FM280000 25003KT P6SM BKN012
     FM280400 29003KT P6SM BKN009=



000
FTUS46 KOTX 271550 AAA
TAFMWH
TAF AMD
KMWH 271550Z 2716/2812 05004KT 1/2SM -DZ FG VV002
     FM271800 35005KT 3SM BR VCFG BKN006
     FM280000 25003KT P6SM BKN012
     FM280400 29003KT P6SM BKN009=



000
FTUS46 KOTX 271550 AAA
TAFMWH
TAF AMD
KMWH 271550Z 2716/2812 05004KT 1/2SM -DZ FG VV002
     FM271800 35005KT 3SM BR VCFG BKN006
     FM280000 25003KT P6SM BKN012
     FM280400 29003KT P6SM BKN009=



000
FTUS46 KOTX 271550 AAA
TAFMWH
TAF AMD
KMWH 271550Z 2716/2812 05004KT 1/2SM -DZ FG VV002
     FM271800 35005KT 3SM BR VCFG BKN006
     FM280000 25003KT P6SM BKN012
     FM280400 29003KT P6SM BKN009=



000
FTUS46 KOTX 271542 AAA
TAFSFF
TAF AMD
KSFF 271542Z 2716/2812 VRB02KT 3SM -FZDZ BR OVC003
     FM271800 VRB03KT P6SM SCT008 BKN150
     FM280500 20003KT P6SM BKN012 OVC120=



000
FTUS46 KOTX 271542 AAA
TAFSFF
TAF AMD
KSFF 271542Z 2716/2812 VRB02KT 3SM -FZDZ BR OVC003
     FM271800 VRB03KT P6SM SCT008 BKN150
     FM280500 20003KT P6SM BKN012 OVC120=



000
FTUS46 KOTX 271542 AAA
TAFCOE
TAF AMD
KCOE 271542Z 2716/2812 08004KT 1SM -FZDZ BR BKN005
     FM271800 07005KT P6SM BKN200
     FM280500 20005KT P6SM BKN010 OVC120
      AMD LTD TO CLD AND VIS=



000
FTUS46 KOTX 271542 AAA
TAFCOE
TAF AMD
KCOE 271542Z 2716/2812 08004KT 1SM -FZDZ BR BKN005
     FM271800 07005KT P6SM BKN200
     FM280500 20005KT P6SM BKN010 OVC120
      AMD LTD TO CLD AND VIS=



000
FTUS46 KOTX 271542 AAA
TAFSFF
TAF AMD
KSFF 271542Z 2716/2812 VRB02KT 3SM -FZDZ BR OVC003
     FM271800 VRB03KT P6SM SCT008 BKN150
     FM280500 20003KT P6SM BKN012 OVC120=



000
FTUS46 KOTX 271542 AAA
TAFSFF
TAF AMD
KSFF 271542Z 2716/2812 VRB02KT 3SM -FZDZ BR OVC003
     FM271800 VRB03KT P6SM SCT008 BKN150
     FM280500 20003KT P6SM BKN012 OVC120=



000
FTUS46 KOTX 271542 AAA
TAFCOE
TAF AMD
KCOE 271542Z 2716/2812 08004KT 1SM -FZDZ BR BKN005
     FM271800 07005KT P6SM BKN200
     FM280500 20005KT P6SM BKN010 OVC120
      AMD LTD TO CLD AND VIS=



000
FTUS46 KOTX 271540 AAB
TAFGEG
TAF AMD
KGEG 271540Z 2716/2812 04003KT 1/2SM -FZDZ FZFG OVC002
     FM271800 13004KT 1SM BR BKN003
     FM272100 17005KT 6SM BR SCT005 BKN150
     FM280500 20005KT P6SM BKN009 OVC120=



000
FTUS46 KOTX 271540 AAB
TAFGEG
TAF AMD
KGEG 271540Z 2716/2812 04003KT 1/2SM -FZDZ FZFG OVC002
     FM271800 13004KT 1SM BR BKN003
     FM272100 17005KT 6SM BR SCT005 BKN150
     FM280500 20005KT P6SM BKN009 OVC120=



000
FTUS46 KOTX 271245 AAA
TAFGEG
TAF AMD
KGEG 271245Z 2713/2812 04003KT 1/2SM FG VV002
     FM271800 13004KT 1SM BR BKN003
     FM272100 17005KT 6SM BR SCT005 BKN150
     FM280500 20005KT P6SM BKN009 OVC120=



000
FTUS46 KOTX 271139
TAFLWS
TAF
KLWS 271139Z 2712/2812 11008KT P6SM BKN200
     FM280500 17004KT P6SM SCT020 BKN120=



000
FTUS46 KOTX 271139
TAFPUW
TAF
KPUW 271139Z 2712/2812 10006KT P6SM BKN150
     FM271800 15007KT P6SM BKN200
     FM280100 24006KT P6SM SCT010 BKN110=



000
FTUS46 KOTX 271139
TAFCOE
TAF
KCOE 271139Z 2712/2812 05006KT P6SM SCT005 BKN150
     FM271500 08004KT 5SM BR BKN005
     FM271800 07005KT P6SM BKN200
     FM280500 20005KT P6SM BKN010 OVC120
      AMD LTD TO CLD AND VIS=



000
FTUS46 KOTX 271139
TAFGEG
TAF
KGEG 271139Z 2712/2812 07004KT 1SM BCFG FEW001 BKN150
     FM271500 VRB04KT 1/2SM FG VV002
     FM271800 13004KT 1SM BR BKN003
     FM272100 17005KT 6SM BR SCT005 BKN150
     FM280500 20005KT P6SM BKN009 OVC120=



000
FTUS46 KOTX 271139
TAFMWH
TAF
KMWH 271139Z 2712/2812 05004KT 1/2SM FG VV002
     FM271800 35005KT 3SM BR VCFG BKN006
     FM280000 25003KT P6SM BKN012
     FM280400 29003KT P6SM BKN009=



000
FTUS46 KOTX 271139
TAFSFF
TAF
KSFF 271139Z 2712/2812 VRB02KT 3SM BR OVC003
     FM271800 VRB03KT P6SM SCT008 BKN150
     FM280500 20003KT P6SM BKN012 OVC120=



000
FTUS46 KOTX 271139
TAFCOE
TAF
KCOE 271139Z 2712/2812 05006KT P6SM SCT005 BKN150
     FM271500 08004KT 5SM BR BKN005
     FM271800 07005KT P6SM BKN200
     FM280500 20005KT P6SM BKN010 OVC120
      AMD LTD TO CLD AND VIS=



000
FTUS46 KOTX 271139
TAFSFF
TAF
KSFF 271139Z 2712/2812 VRB02KT 3SM BR OVC003
     FM271800 VRB03KT P6SM SCT008 BKN150
     FM280500 20003KT P6SM BKN012 OVC120=



000
FTUS46 KOTX 271139
TAFGEG
TAF
KGEG 271139Z 2712/2812 07004KT 1SM BCFG FEW001 BKN150
     FM271500 VRB04KT 1/2SM FG VV002
     FM271800 13004KT 1SM BR BKN003
     FM272100 17005KT 6SM BR SCT005 BKN150
     FM280500 20005KT P6SM BKN009 OVC120=



000
FTUS46 KOTX 271139
TAFEAT
TAF
KEAT 271139Z 2712/2812 30004KT 1/4SM FG VV002
     FM271800 VRB02KT 1SM BR OVC002
     FM272100 VRB03KT 6SM BR OVC006=



000
FTUS46 KOTX 271139
TAFEAT
TAF
KEAT 271139Z 2712/2812 30004KT 1/4SM FG VV002
     FM271800 VRB02KT 1SM BR OVC002
     FM272100 VRB03KT 6SM BR OVC006=



000
FTUS46 KOTX 271139
TAFMWH
TAF
KMWH 271139Z 2712/2812 05004KT 1/2SM FG VV002
     FM271800 35005KT 3SM BR VCFG BKN006
     FM280000 25003KT P6SM BKN012
     FM280400 29003KT P6SM BKN009=



000
FTUS46 KOTX 271139
TAFLWS
TAF
KLWS 271139Z 2712/2812 11008KT P6SM BKN200
     FM280500 17004KT P6SM SCT020 BKN120=



000
FTUS46 KOTX 271139
TAFPUW
TAF
KPUW 271139Z 2712/2812 10006KT P6SM BKN150
     FM271800 15007KT P6SM BKN200
     FM280100 24006KT P6SM SCT010 BKN110=



000
FTUS46 KOTX 271020 AAA
TAFGEG
TAF AMD
KGEG 271020Z 2710/2806 07004KT 1SM BCFG FEW001 BKN130
     FM271300 VRB04KT 1/2SM FG VV002
     FM271800 13004KT 1SM BR BKN003
     FM272100 17005KT 6SM BR SCT005 BKN150
     FM280500 20005KT P6SM BKN009 OVC120=



000
FTUS46 KOTX 271020 AAA
TAFGEG
TAF AMD
KGEG 271020Z 2710/2806 07004KT 1SM BCFG FEW001 BKN130
     FM271300 VRB04KT 1/2SM FG VV002
     FM271800 13004KT 1SM BR BKN003
     FM272100 17005KT 6SM BR SCT005 BKN150
     FM280500 20005KT P6SM BKN009 OVC120=



000
FTUS46 KOTX 270743 AAA
TAFSFF
TAF AMD
KSFF 270743Z 2708/2806 VRB02KT 1SM BR OVC003
     FM271700 VRB03KT P6SM SCT008 BKN200
     FM280500 20003KT P6SM BKN012 OVC120=



000
FTUS46 KOTX 270743 AAA
TAFSFF
TAF AMD
KSFF 270743Z 2708/2806 VRB02KT 1SM BR OVC003
     FM271700 VRB03KT P6SM SCT008 BKN200
     FM280500 20003KT P6SM BKN012 OVC120=



000
FTUS46 KOTX 270550 CCA
TAFEAT
TAF COR
KEAT 270550Z 2706/2806 00000KT 1/4SM FG VV001
     FM271300 VRB02KT 1SM BR OVC002
     FM272000 VRB03KT 6SM BR OVC006=



000
FTUS46 KOTX 270550 CCA
TAFEAT
TAF COR
KEAT 270550Z 2706/2806 00000KT 1/4SM FG VV001
     FM271300 VRB02KT 1SM BR OVC002
     FM272000 VRB03KT 6SM BR OVC006=



000
FTUS46 KOTX 270539
TAFLWS
TAF
KLWS 270539Z 2706/2806 14010KT P6SM SCT200
     FM271600 15005KT P6SM BKN200
     FM280500 17004KT P6SM SCT020 BKN120=



000
FTUS46 KOTX 270539
TAFGEG
TAF
KGEG 270539Z 2706/2806 00000KT P6SM SCT200
     FM270700 VRB02KT P6SM BCFG FEW001 FEW150 SCT200
     FM271500 VRB04KT 1/2SM FG VV002 BKN200
     FM271800 13004KT 1SM BR BKN003
     FM272100 17005KT 6SM BR SCT005 BKN150
     FM280500 20005KT P6SM BKN009 OVC120=



000
FTUS46 KOTX 270539
TAFPUW
TAF
KPUW 270539Z 2706/2806 11005KT P6SM SCT200
     FM271800 15007KT P6SM BKN200
     FM280100 24006KT P6SM SCT010 BKN110=



000
FTUS46 KOTX 270539
TAFEAT
TAF
KEAT 270539Z 2706/2806 00000KT 1/4SM FG VV001
     FM270800 VRB02KT 1SM BR OVC002
     FM272000 VRB03KT 6SM BR OVC006=



000
FTUS46 KOTX 270539
TAFMWH
TAF
KMWH 270539Z 2706/2806 05004KT 3/4SM BR VV002
     FM271800 35005KT 3SM BR VCFG BKN006 BKN250
     FM280000 25003KT P6SM BKN012
     FM280400 29003KT P6SM BKN009=



000
FTUS46 KOTX 270539
TAFCOE
TAF
KCOE 270539Z 2706/2806 05006KT P6SM SCT200
     FM271400 08004KT 6SM BR BKN005
     FM271800 07005KT P6SM BKN200
     FM280500 20005KT P6SM BKN010 OVC120
      AMD LTD TO CLD AND VIS=



000
FTUS46 KOTX 270539
TAFSFF
TAF
KSFF 270539Z 2706/2806 05003KT P6SM BCFG FEW003 BKN200
     FM270900 VRB02KT 2SM BCFG SCT002 BKN200
     FM271700 VRB03KT P6SM SCT008 BKN200
     FM280500 20003KT P6SM BKN012 OVC120=



000
FTUS46 KOTX 270539
TAFLWS
TAF
KLWS 270539Z 2706/2806 14010KT P6SM SCT200
     FM271600 15005KT P6SM BKN200
     FM280500 17004KT P6SM SCT020 BKN120=



000
FTUS46 KOTX 270539
TAFCOE
TAF
KCOE 270539Z 2706/2806 05006KT P6SM SCT200
     FM271400 08004KT 6SM BR BKN005
     FM271800 07005KT P6SM BKN200
     FM280500 20005KT P6SM BKN010 OVC120
      AMD LTD TO CLD AND VIS=



000
FTUS46 KOTX 270539
TAFEAT
TAF
KEAT 270539Z 2706/2806 00000KT 1/4SM FG VV001
     FM270800 VRB02KT 1SM BR OVC002
     FM272000 VRB03KT 6SM BR OVC006=



000
FTUS46 KOTX 270539
TAFGEG
TAF
KGEG 270539Z 2706/2806 00000KT P6SM SCT200
     FM270700 VRB02KT P6SM BCFG FEW001 FEW150 SCT200
     FM271500 VRB04KT 1/2SM FG VV002 BKN200
     FM271800 13004KT 1SM BR BKN003
     FM272100 17005KT 6SM BR SCT005 BKN150
     FM280500 20005KT P6SM BKN009 OVC120=



000
FTUS46 KOTX 270539
TAFSFF
TAF
KSFF 270539Z 2706/2806 05003KT P6SM BCFG FEW003 BKN200
     FM270900 VRB02KT 2SM BCFG SCT002 BKN200
     FM271700 VRB03KT P6SM SCT008 BKN200
     FM280500 20003KT P6SM BKN012 OVC120=



000
FTUS46 KOTX 270539
TAFMWH
TAF
KMWH 270539Z 2706/2806 05004KT 3/4SM BR VV002
     FM271800 35005KT 3SM BR VCFG BKN006 BKN250
     FM280000 25003KT P6SM BKN012
     FM280400 29003KT P6SM BKN009=



000
FTUS46 KOTX 270539
TAFPUW
TAF
KPUW 270539Z 2706/2806 11005KT P6SM SCT200
     FM271800 15007KT P6SM BKN200
     FM280100 24006KT P6SM SCT010 BKN110=



000
FTUS46 KOTX 270358 AAA
TAFSFF
TAF AMD
KSFF 270358Z 2704/2724 00000KT 2SM BCFG SCT003 SCT150
     FM270800 VRB02KT 1/2SM FG BKN002
     FM271700 VRB03KT P6SM SCT008 BKN200=



000
FTUS46 KOTX 270358 AAA
TAFSFF
TAF AMD
KSFF 270358Z 2704/2724 00000KT 2SM BCFG SCT003 SCT150
     FM270800 VRB02KT 1/2SM FG BKN002
     FM271700 VRB03KT P6SM SCT008 BKN200=



000
FTUS46 KOTX 270342 AAA
TAFEAT
TAF AMD
KEAT 270342Z 2704/2724 30004KT 1/4SM FG VV001
     FM270800 VRB02KT 1SM BR OVC002
     FM272000 VRB03KT 6SM BR OVC006=



000
FTUS46 KOTX 270342 AAA
TAFEAT
TAF AMD
KEAT 270342Z 2704/2724 30004KT 1/4SM FG VV001
     FM270800 VRB02KT 1SM BR OVC002
     FM272000 VRB03KT 6SM BR OVC006=



000
FTUS46 KOTX 270141 AAB
TAFMWH
TAF AMD
KMWH 270141Z 2702/2724 11005KT 1/4SM FG VV001
     FM271800 35005KT P6SM VCFG BKN250=



000
FTUS46 KOTX 270141 AAB
TAFMWH
TAF AMD
KMWH 270141Z 2702/2724 11005KT 1/4SM FG VV001
     FM271800 35005KT P6SM VCFG BKN250=



000
FTUS46 KOTX 270011 AAA
TAFMWH
TAF AMD
KMWH 270011Z 2700/2724 13006KT 4SM BR BKN003
     FM270700 VRB04KT 1SM BR OVC002
     FM271800 35005KT P6SM VCFG BKN250=



000
FTUS46 KOTX 270011 AAA
TAFMWH
TAF AMD
KMWH 270011Z 2700/2724 13006KT 4SM BR BKN003
     FM270700 VRB04KT 1SM BR OVC002
     FM271800 35005KT P6SM VCFG BKN250=



000
FTUS46 KOTX 262342 CCA
TAFEAT
TAF COR
KEAT 262342Z 2700/2724 VRB03KT P6SM SCT004 BKN200
     FM270400 31003KT 3SM BR OVC003
     FM270800 VRB02KT 1SM BR OVC002
     FM272000 VRB03KT 6SM BR OVC006=



000
FTUS46 KOTX 262342 CCA
TAFEAT
TAF COR
KEAT 262342Z 2700/2724 VRB03KT P6SM SCT004 BKN200
     FM270400 31003KT 3SM BR OVC003
     FM270800 VRB02KT 1SM BR OVC002
     FM272000 VRB03KT 6SM BR OVC006=



000
FTUS46 KOTX 262320
TAFSFF
TAF
KSFF 262320Z 2700/2724 VRB03KT P6SM FEW200
     FM271000 VRB02KT P6SM BKN006
     FM271700 VRB03KT P6SM SCT008 BKN200=



000
FTUS46 KOTX 262320
TAFEAT
TAF
KEAT 262320Z 2700/2724 VRB03KT P6SM BKN004 BKN200
     FM270400 31003KT 3SM BR OVC003
     FM270800 VRB02KT 1SM BR OVC002
     FM272000 VRB03KT 6SM BR OVC006=



000
FTUS46 KOTX 262320
TAFSFF
TAF
KSFF 262320Z 2700/2724 VRB03KT P6SM FEW200
     FM271000 VRB02KT P6SM BKN006
     FM271700 VRB03KT P6SM SCT008 BKN200=



000
FTUS46 KOTX 262320
TAFCOE
TAF
KCOE 262320Z 2700/2724 03008KT P6SM FEW200
     FM271400 08004KT 6SM BR BKN005
     FM271800 07005KT P6SM BKN200
      AMD LTD TO CLD AND VIS=



000
FTUS46 KOTX 262320
TAFMWH
TAF
KMWH 262320Z 2700/2724 13006KT P6SM SCT010 SCT250
     FM270300 VRB04KT 3SM BR BKN010
     FM271800 35005KT P6SM VCFG BKN250=



000
FTUS46 KOTX 262320
TAFPUW
TAF
KPUW 262320Z 2700/2724 14011KT P6SM FEW200
     FM271800 15007KT P6SM BKN200=



000
FTUS46 KOTX 262320
TAFEAT
TAF
KEAT 262320Z 2700/2724 VRB03KT P6SM BKN004 BKN200
     FM270400 31003KT 3SM BR OVC003
     FM270800 VRB02KT 1SM BR OVC002
     FM272000 VRB03KT 6SM BR OVC006=



000
FTUS46 KOTX 262320
TAFCOE
TAF
KCOE 262320Z 2700/2724 03008KT P6SM FEW200
     FM271400 08004KT 6SM BR BKN005
     FM271800 07005KT P6SM BKN200
      AMD LTD TO CLD AND VIS=



000
FTUS46 KOTX 262320
TAFGEG
TAF
KGEG 262320Z 2700/2724 03003KT P6SM BCFG FEW001 FEW200
     FM270600 08003KT 1/2SM FG OVC001
     FM271800 13004KT 1SM BR BKN003
     FM272100 17005KT 6SM BR SCT005 BKN200=



000
FTUS46 KOTX 262320
TAFGEG
TAF
KGEG 262320Z 2700/2724 03003KT P6SM BCFG FEW001 FEW200
     FM270600 08003KT 1/2SM FG OVC001
     FM271800 13004KT 1SM BR BKN003
     FM272100 17005KT 6SM BR SCT005 BKN200=



000
FTUS46 KOTX 262320
TAFLWS
TAF
KLWS 262320Z 2700/2724 16010KT P6SM FEW200
     FM271800 15005KT P6SM BKN200=



000
FTUS46 KOTX 262108 AAA
TAFEAT
TAF AMD
KEAT 262108Z 2621/2718 00000KT 5SM BR OVC003
     FM262200 10003KT P6SM BKN006
     FM270500 31003KT 3SM BR OVC005=



000
FTUS46 KOTX 262108 AAA
TAFEAT
TAF AMD
KEAT 262108Z 2621/2718 00000KT 5SM BR OVC003
     FM262200 10003KT P6SM BKN006
     FM270500 31003KT 3SM BR OVC005=



000
FTUS46 KOTX 262107 AAA
TAFMWH
TAF AMD
KMWH 262107Z 2621/2718 12005KT P6SM VCFG SCT005 SCT250
     FM262200 02003KT P6SM SCT250
     FM271000 35005KT P6SM VCFG SCT250=



000
FTUS46 KOTX 262107 AAA
TAFMWH
TAF AMD
KMWH 262107Z 2621/2718 12005KT P6SM VCFG SCT005 SCT250
     FM262200 02003KT P6SM SCT250
     FM271000 35005KT P6SM VCFG SCT250=



000
FTUS46 KOTX 262106 AAA
TAFGEG
TAF AMD
KGEG 262106Z 2621/2718 04004KT P6SM BCFG FEW001 BKN002
     FM262200 12006KT P6SM SCT008 SCT250
     FM270600 08004KT 1/2SM FG BKN001=



000
FTUS46 KOTX 262106 AAA
TAFGEG
TAF AMD
KGEG 262106Z 2621/2718 04004KT P6SM BCFG FEW001 BKN002
     FM262200 12006KT P6SM SCT008 SCT250
     FM270600 08004KT 1/2SM FG BKN001=



000
FTUS46 KOTX 262105 AAA
TAFSFF
TAF AMD
KSFF 262105Z 2621/2718 VRB03KT P6SM SCT250
     FM270800 VRB02KT P6SM BKN006=



000
FTUS46 KOTX 262105 AAA
TAFSFF
TAF AMD
KSFF 262105Z 2621/2718 VRB03KT P6SM SCT250
     FM270800 VRB02KT P6SM BKN006=



000
FTUS46 KOTX 262104 AAA
TAFCOE
TAF AMD
KCOE 262104Z 2621/2718 02006KT P6SM SCT002 SCT250
     FM271400 08004KT 6SM BR BKN005
      AMD LTD TO CLD AND VIS=



000
FTUS46 KOTX 262104 AAA
TAFCOE
TAF AMD
KCOE 262104Z 2621/2718 02006KT P6SM SCT002 SCT250
     FM271400 08004KT 6SM BR BKN005
      AMD LTD TO CLD AND VIS=



    US Dept of Commerce
    National Oceanic and Atmospheric Administration
    National Weather Service
    1325 East West Highway
    Silver Spring, MD 20910
    Page Author: NWS Internet Services Team
Disclaimer
Information Quality
Credits
Glossary
Privacy Policy
Freedom of Information Act (FOIA)
About Us
Career Opportunities